createdAt,value
2023-04-03T00:00:08.061Z,102063.97
2023-04-03T00:05:11.079Z,102075.59
2023-04-03T00:10:16.232Z,102081.13
2023-04-03T00:15:19.114Z,102085.28
2023-04-03T00:20:21.953Z,102092.03
2023-04-03T00:25:26.044Z,102090.97
2023-04-03T00:30:28.810Z,102084.22
2023-04-03T00:35:31.844Z,102094.47
2023-04-03T00:40:38.656Z,102096.16
2023-04-03T00:45:42.999Z,102102.00
2023-04-03T00:50:46.980Z,102105.81
2023-04-03T00:55:52.847Z,102108.72
2023-04-03T01:00:58.678Z,102113.63
2023-04-03T01:06:01.786Z,102118.06
2023-04-03T01:11:06.155Z,102111.63
2023-04-03T01:16:10.149Z,102119.28
2023-04-03T01:21:32.490Z,102120.50
2023-04-03T01:26:36.799Z,102116.69
2023-04-03T01:31:52.434Z,102133.16
2023-04-03T01:36:55.440Z,102130.88
2023-04-03T01:42:00.179Z,102139.25
2023-04-03T01:47:09.393Z,102145.22
2023-04-03T01:52:13.514Z,102157.50
2023-04-03T01:57:16.316Z,102155.31
2023-04-03T02:02:21.519Z,102165.56
2023-04-03T02:07:24.305Z,102171.88
2023-04-03T02:12:27.042Z,102174.50
2023-04-03T02:17:31.239Z,102171.59
2023-04-03T02:22:34.025Z,102186.13
2023-04-03T02:27:37.119Z,102187.47
2023-04-03T02:32:41.822Z,102194.38
2023-04-03T02:37:44.831Z,102198.25
2023-04-03T02:42:47.727Z,102213.63
2023-04-03T02:47:52.193Z,102210.47
2023-04-03T02:52:55.124Z,102210.25
2023-04-03T02:57:58.072Z,102211.31
2023-04-03T03:03:02.454Z,102213.84
2023-04-03T03:08:05.544Z,102209.47
2023-04-03T03:13:08.382Z,102214.19
2023-04-03T03:18:12.521Z,102233.03
2023-04-03T03:23:15.280Z,102233.94
2023-04-03T03:28:18.063Z,102228.09
2023-04-03T03:33:22.331Z,102233.63
2023-04-03T03:38:25.507Z,102226.00
2023-04-03T03:43:29.662Z,102244.34
2023-04-03T03:48:34.352Z,102235.72
2023-04-03T03:53:37.922Z,102240.28
2023-04-03T03:58:43.702Z,102236.09
2023-04-03T04:03:48.090Z,102245.69
2023-04-03T04:08:55.672Z,102252.16
2023-04-03T04:13:58.500Z,102253.94
2023-04-03T04:19:07.596Z,102265.97
2023-04-03T04:24:12.634Z,102261.13
2023-04-03T04:29:16.394Z,102268.31
2023-04-03T04:34:23.038Z,102278.53
2023-04-03T04:39:26.466Z,102283.19
2023-04-03T04:44:32.272Z,102296.00
2023-04-03T04:49:36.893Z,102295.75
2023-04-03T04:54:39.728Z,102300.00
2023-04-03T04:59:43.336Z,102322.59
2023-04-03T05:04:47.649Z,102324.66
2023-04-03T05:09:56.829Z,102330.19
2023-04-03T05:15:00.277Z,102324.75
2023-04-03T05:20:08.544Z,102338.16
2023-04-03T05:25:12.025Z,102336.03
2023-04-03T05:30:18.842Z,102347.88
2023-04-03T05:35:24.929Z,102346.31
2023-04-03T05:40:31.500Z,102356.94
2023-04-03T05:45:34.678Z,102374.41
2023-04-03T05:50:42.372Z,102387.66
2023-04-03T05:55:48.406Z,102382.91
2023-04-03T06:00:51.643Z,102391.06
2023-04-03T06:05:56.348Z,102393.81
2023-04-03T06:11:00.989Z,102406.63
2023-04-03T06:16:05.311Z,102412.53
2023-04-03T06:21:09.681Z,102408.25
2023-04-03T06:26:12.750Z,102420.09
2023-04-03T06:31:15.538Z,102423.16
2023-04-03T06:36:21.629Z,102426.66
2023-04-03T06:41:24.420Z,102428.38
2023-04-03T06:46:28.751Z,102449.47
2023-04-03T06:51:32.915Z,102447.97
2023-04-03T06:56:36.248Z,102424.59
2023-04-03T07:01:39.097Z,102422.09
2023-04-03T07:06:43.513Z,102430.63
2023-04-03T07:11:46.738Z,102415.72
2023-04-03T07:16:49.576Z,102420.47
2023-04-03T07:21:53.768Z,102424.06
2023-04-03T07:26:56.644Z,102423.22
2023-04-03T07:31:59.432Z,102415.88
2023-04-03T07:37:05.649Z,102407.97
2023-04-03T07:42:08.341Z,102390.47
2023-04-03T07:47:11.131Z,102388.56
2023-04-03T07:52:15.755Z,102383.25
2023-04-03T07:57:18.711Z,102368.72
2023-04-03T08:02:21.468Z,102355.59
2023-04-03T08:07:25.569Z,102348.94
2023-04-03T08:12:29.473Z,102349.13
2023-04-03T08:17:32.244Z,102335.34
2023-04-03T08:22:36.489Z,102331.41
2023-04-03T08:27:39.236Z,102317.16
2023-04-03T08:32:42.954Z,102310.53
2023-04-03T08:37:47.285Z,102287.09
2023-04-03T08:43:05.172Z,102280.63
2023-04-03T08:48:09.405Z,102261.81
2023-04-03T08:53:16.405Z,102255.09
2023-04-03T08:58:22.542Z,102225.81
2023-04-03T09:03:25.870Z,102216.00
2023-04-03T09:08:32.423Z,102197.59
2023-04-03T09:13:39.514Z,102190.94
2023-04-03T09:18:46.822Z,102187.06
2023-04-03T09:23:52.987Z,102185.53
2023-04-03T09:28:56.953Z,102185.94
2023-04-03T09:34:03.934Z,102186.16
2023-04-03T09:39:12.617Z,102177.72
2023-04-03T09:44:24.657Z,102163.88
2023-04-03T09:49:27.934Z,102159.09
2023-04-03T09:54:41.865Z,102151.56
2023-04-03T09:59:48.501Z,102143.22
2023-04-03T10:05:06.402Z,102134.34
2023-04-03T10:10:23.623Z,102136.75
2023-04-03T10:15:38.860Z,102123.88
2023-04-03T10:20:45.940Z,102133.91
2023-04-03T10:25:59.621Z,102118.38
2023-04-03T10:31:07.690Z,102118.66
2023-04-03T10:36:18.385Z,102114.03
2023-04-03T10:41:27.805Z,102113.91
2023-04-03T10:46:35.598Z,102110.91
2023-04-03T10:51:43.899Z,102107.66
2023-04-03T10:56:57.904Z,102116.06
2023-04-03T11:02:10.656Z,102111.44
2023-04-03T11:07:17.775Z,102116.44
2023-04-03T11:12:26.324Z,102109.81
2023-04-03T11:17:33.493Z,102100.56
2023-04-03T11:22:39.013Z,102102.81
2023-04-03T11:27:46.997Z,102106.22
2023-04-03T11:33:07.654Z,102105.25
2023-04-03T11:38:17.892Z,102098.75
2023-04-03T11:43:27.722Z,102093.59
2023-04-03T11:48:52.237Z,102086.81
2023-04-03T11:53:55.021Z,102078.97
2023-04-03T11:59:32.508Z,102084.91
2023-04-03T12:04:35.226Z,102084.22
2023-04-03T12:10:30.921Z,102079.88
2023-04-03T12:15:54.844Z,102071.44
2023-04-03T12:20:59.158Z,102073.50
2023-04-03T12:26:22.650Z,102067.22
2023-04-03T12:31:41.116Z,102062.63
2023-04-03T12:36:55.394Z,102047.31
2023-04-03T12:42:05.626Z,102055.19
2023-04-03T12:47:30.246Z,102050.59
2023-04-03T12:52:37.691Z,102043.19
2023-04-03T12:57:40.439Z,102040.22
2023-04-03T13:02:47.191Z,102026.06
2023-04-03T13:07:52.187Z,102026.75
2023-04-03T13:12:57.850Z,102034.09
2023-04-03T13:18:02.686Z,102029.53
2023-04-03T13:23:09.220Z,102010.28
2023-04-03T13:28:14.661Z,102006.91
2023-04-03T13:33:24.528Z,102008.09
2023-04-03T13:38:32.223Z,102001.97
2023-04-03T13:43:36.981Z,101995.28
2023-04-03T13:48:44.466Z,101996.06
2023-04-03T13:53:50.385Z,101986.03
2023-04-03T13:58:58.710Z,101983.66
2023-04-03T14:04:12.890Z,101979.19
2023-04-03T14:09:16.497Z,101959.50
2023-04-03T14:14:22.039Z,101960.94
2023-04-03T14:19:29.238Z,101942.34
2023-04-03T14:24:33.078Z,101961.06
2023-04-03T14:29:35.805Z,101960.13
2023-04-03T14:34:40.407Z,101941.97
2023-04-03T14:39:43.589Z,101927.97
2023-04-03T14:44:46.850Z,101930.47
2023-04-03T14:49:50.998Z,101931.88
2023-04-03T14:54:54.815Z,101934.63
2023-04-03T14:59:57.740Z,101932.31
2023-04-03T15:05:05.002Z,101923.09
2023-04-03T15:10:18.714Z,101917.38
2023-04-03T15:15:23.138Z,101916.47
2023-04-03T15:20:31.335Z,101913.59
2023-04-03T15:25:34.579Z,101919.81
2023-04-03T15:30:38.954Z,101907.81
2023-04-03T15:35:43.281Z,101910.06
2023-04-03T15:40:47.987Z,101916.13
2023-04-03T15:45:51.559Z,101914.19
2023-04-03T15:50:57.697Z,101910.06
2023-04-03T15:56:01.357Z,101911.53
2023-04-03T16:01:04.333Z,101898.97
2023-04-03T16:06:08.535Z,101908.09
2023-04-03T16:11:11.414Z,101907.84
2023-04-03T16:16:14.348Z,101901.63
2023-04-03T16:21:19.195Z,101899.13
2023-04-03T16:26:21.968Z,101904.13
2023-04-03T16:31:25.219Z,101903.78
2023-04-03T16:36:29.528Z,101900.53
2023-04-03T16:41:33.051Z,101900.75
2023-04-03T16:46:35.996Z,101909.22
2023-04-03T16:51:40.456Z,101911.03
2023-04-03T16:56:43.247Z,101911.41
2023-04-03T17:01:46.496Z,101910.56
2023-04-03T17:06:54.452Z,101898.09
2023-04-03T17:11:57.192Z,101908.88
2023-04-03T17:17:00.135Z,101907.31
2023-04-03T17:22:04.608Z,101902.06
2023-04-03T17:27:07.429Z,101892.78
2023-04-03T17:32:10.324Z,101894.41
2023-04-03T17:37:14.660Z,101893.03
2023-04-03T17:42:17.496Z,101897.25
2023-04-03T17:47:20.233Z,101904.84
2023-04-03T17:52:28.198Z,101897.84
2023-04-03T17:57:31.542Z,101901.09
2023-04-03T18:02:34.454Z,101908.84
2023-04-03T18:07:39.017Z,101906.06
2023-04-03T18:12:42.458Z,101904.78
2023-04-03T18:17:46.284Z,101910.41
2023-04-03T18:22:50.814Z,101903.75
2023-04-03T18:27:53.896Z,101912.00
2023-04-03T18:32:56.749Z,101910.94
2023-04-03T18:38:00.957Z,101915.47
2023-04-03T18:43:03.780Z,101913.00
2023-04-03T18:48:07.099Z,101912.59
2023-04-03T18:53:11.255Z,101916.38
2023-04-03T18:58:14.032Z,101909.31
2023-04-03T19:03:17.070Z,101917.38
2023-04-03T19:08:21.336Z,101917.09
2023-04-03T19:13:24.096Z,101917.69
2023-04-03T19:18:27.040Z,101921.09
2023-04-03T19:23:32.228Z,101923.56
2023-04-03T19:28:35.251Z,101918.25
2023-04-03T19:33:38.019Z,101922.16
2023-04-03T19:38:42.751Z,101921.78
2023-04-03T19:43:45.684Z,101928.59
2023-04-03T19:48:48.461Z,101928.31
2023-04-03T19:53:52.828Z,101933.75
2023-04-03T19:58:55.646Z,101935.78
2023-04-03T20:03:58.477Z,101943.72
2023-04-03T20:09:02.763Z,101940.75
2023-04-03T20:14:05.883Z,101928.13
2023-04-03T20:19:09.480Z,101933.63
2023-04-03T20:24:15.611Z,101925.84
2023-04-03T20:29:19.241Z,101920.38
2023-04-03T20:34:21.972Z,101930.34
2023-04-03T20:39:26.551Z,101926.03
2023-04-03T20:44:29.330Z,101926.94
2023-04-03T20:49:32.261Z,101918.34
2023-04-03T20:54:36.321Z,101909.66
2023-04-03T20:59:40.148Z,101909.06
2023-04-03T21:04:46.439Z,101910.28
2023-04-03T21:10:28.244Z,101909.47
2023-04-03T21:15:51.196Z,101914.31
2023-04-03T21:20:55.763Z,101920.19
2023-04-03T21:25:58.717Z,101917.84
2023-04-03T21:31:01.453Z,101919.75
2023-04-03T21:36:05.645Z,101915.84
2023-04-03T21:41:08.393Z,101910.31
2023-04-03T21:46:11.186Z,101911.84
2023-04-03T21:51:16.149Z,101902.72
2023-04-03T21:56:18.944Z,101897.41
2023-04-03T22:01:22.251Z,101887.25
2023-04-03T22:06:27.170Z,101882.41
2023-04-03T22:11:30.367Z,101879.94
2023-04-03T22:16:33.140Z,101880.44
2023-04-03T22:21:37.235Z,101877.22
2023-04-03T22:26:40.693Z,101875.09
2023-04-03T22:31:43.525Z,101865.81
2023-04-03T22:36:47.601Z,101873.28
2023-04-03T22:41:50.397Z,101870.69
2023-04-03T22:46:53.581Z,101880.25
2023-04-03T22:51:57.670Z,101876.25
2023-04-03T22:57:00.428Z,101885.16
2023-04-03T23:02:03.202Z,101879.81
2023-04-03T23:07:07.278Z,101889.28
2023-04-03T23:12:10.038Z,101890.22
2023-04-03T23:17:13.094Z,101888.84
2023-04-03T23:22:17.503Z,101887.63
2023-04-03T23:27:20.387Z,101891.16
2023-04-03T23:32:23.153Z,101892.06
2023-04-03T23:37:27.302Z,101889.31
2023-04-03T23:42:30.041Z,101887.47
2023-04-03T23:47:32.823Z,101895.84
2023-04-03T23:52:36.921Z,101885.63
2023-04-03T23:57:39.666Z,101899.94
